createdAt,value
2017-04-02T00:00:36.818Z,0
2017-04-02T00:01:17.480Z,0
2017-04-02T00:01:58.113Z,0
2017-04-02T00:02:38.735Z,0
2017-04-02T00:03:19.327Z,0
2017-04-02T00:03:59.891Z,0
2017-04-02T00:04:40.519Z,0
2017-04-02T00:05:21.095Z,0
2017-04-02T00:06:01.670Z,0
2017-04-02T00:06:42.319Z,0
2017-04-02T00:07:22.896Z,0
2017-04-02T00:08:03.513Z,0
2017-04-02T00:08:44.110Z,0
2017-04-02T00:09:24.720Z,0
2017-04-02T00:10:05.289Z,0
2017-04-02T00:10:47.811Z,0
2017-04-02T00:11:28.398Z,0
2017-04-02T00:12:09.950Z,0
2017-04-02T00:12:50.520Z,0
2017-04-02T00:13:31.123Z,0
2017-04-02T00:14:11.712Z,0
2017-04-02T00:14:52.321Z,0
2017-04-02T00:15:32.897Z,0
2017-04-02T00:16:13.498Z,0
2017-04-02T00:16:54.086Z,0
2017-04-02T00:17:34.659Z,0
2017-04-02T00:18:15.270Z,0
2017-04-02T00:18:55.853Z,0
2017-04-02T00:19:36.417Z,0
2017-04-02T00:20:18.030Z,0
2017-04-02T00:20:58.605Z,0
2017-04-02T00:21:39.180Z,0
2017-04-02T00:22:20.760Z,0
2017-04-02T00:23:01.339Z,0
2017-04-02T00:23:41.944Z,0
2017-04-02T00:24:22.515Z,0
2017-04-02T00:25:03.078Z,0
2017-04-02T00:25:43.664Z,0
2017-04-02T00:26:25.248Z,0
2017-04-02T00:27:05.824Z,0
2017-04-02T00:27:46.410Z,0
2017-04-02T00:28:26.993Z,0
2017-04-02T00:29:07.563Z,0
2017-04-02T00:29:48.976Z,0
2017-04-02T00:30:30.482Z,0
2017-04-02T00:31:11.065Z,0
2017-04-02T00:31:51.622Z,0
2017-04-02T00:32:32.201Z,0
2017-04-02T00:33:12.806Z,0
2017-04-02T00:33:53.371Z,0
2017-04-02T00:34:33.953Z,0
2017-04-02T00:35:15.521Z,0
2017-04-02T00:35:56.101Z,0
2017-04-02T00:36:36.706Z,0
2017-04-02T00:37:17.286Z,0
2017-04-02T00:37:57.858Z,0
2017-04-02T00:38:38.439Z,0
2017-04-02T00:39:19.018Z,0
2017-04-02T00:39:59.597Z,0
2017-04-02T00:40:40.223Z,0
2017-04-02T00:41:20.815Z,0
2017-04-02T00:42:01.383Z,0
2017-04-02T00:42:41.966Z,0
2017-04-02T00:43:22.544Z,0
2017-04-02T00:44:03.171Z,0
2017-04-02T00:44:43.756Z,0
2017-04-02T00:45:24.327Z,0
2017-04-02T00:46:04.923Z,0
2017-04-02T00:46:45.486Z,0
2017-04-02T00:47:26.085Z,0
2017-04-02T00:48:06.658Z,0
2017-04-02T00:48:47.238Z,0
2017-04-02T00:49:27.835Z,0
2017-04-02T00:50:08.418Z,0
2017-04-02T00:50:48.983Z,0
2017-04-02T00:51:29.550Z,0
2017-04-02T00:52:10.140Z,0
2017-04-02T00:52:50.726Z,0
2017-04-02T00:53:31.295Z,0
2017-04-02T00:54:11.864Z,0
2017-04-02T00:54:52.446Z,0
2017-04-02T00:55:33.012Z,0
2017-04-02T00:56:13.596Z,0
2017-04-02T00:56:54.203Z,0
2017-04-02T00:57:34.751Z,0
2017-04-02T00:58:15.341Z,0
2017-04-02T00:58:55.912Z,0
2017-04-02T00:59:36.489Z,0
2017-04-02T01:00:17.080Z,0
2017-04-02T01:00:57.659Z,0
2017-04-02T01:01:38.225Z,0
2017-04-02T01:02:18.788Z,0
2017-04-02T01:02:59.372Z,0
2017-04-02T01:03:39.936Z,0
2017-04-02T01:04:20.521Z,0
2017-04-02T01:05:01.108Z,0
2017-04-02T01:05:41.692Z,0
2017-04-02T01:06:22.264Z,0
2017-04-02T01:07:02.855Z,0
2017-04-02T01:07:43.403Z,0
2017-04-02T01:08:24.008Z,0
2017-04-02T01:09:04.589Z,0
2017-04-02T01:09:45.163Z,0
2017-04-02T01:10:25.774Z,0
2017-04-02T01:11:06.379Z,0
2017-04-02T01:11:46.944Z,0
2017-04-02T01:12:27.499Z,0
2017-04-02T01:13:08.063Z,0
2017-04-02T01:13:48.641Z,0
2017-04-02T01:14:29.221Z,0
2017-04-02T01:15:09.795Z,0
2017-04-02T01:15:50.372Z,0
2017-04-02T01:16:30.946Z,0
2017-04-02T01:17:11.526Z,0
2017-04-02T01:17:52.099Z,0
2017-04-02T01:18:32.670Z,0
2017-04-02T01:19:13.254Z,0
2017-04-02T01:19:53.827Z,0
2017-04-02T01:20:34.374Z,0
2017-04-02T01:21:14.988Z,0
2017-04-02T01:21:55.542Z,0
2017-04-02T01:22:36.143Z,0
2017-04-02T01:23:16.777Z,0
2017-04-02T01:23:57.399Z,0
2017-04-02T01:24:37.976Z,0
2017-04-02T01:25:18.539Z,0
2017-04-02T01:25:59.153Z,0
2017-04-02T01:26:39.775Z,0
2017-04-02T01:27:20.363Z,0
2017-04-02T01:28:00.924Z,0
2017-04-02T01:28:41.527Z,0
2017-04-02T01:29:22.122Z,0
2017-04-02T01:30:02.717Z,0
2017-04-02T01:30:43.325Z,0
2017-04-02T01:31:23.914Z,0
2017-04-02T01:32:04.496Z,0
2017-04-02T01:32:45.104Z,0
2017-04-02T01:33:25.731Z,0
2017-04-02T01:34:06.313Z,0
2017-04-02T01:34:46.897Z,0
2017-04-02T01:35:27.485Z,0
2017-04-02T01:36:08.097Z,0
2017-04-02T01:36:48.694Z,0
2017-04-02T01:37:29.292Z,0
2017-04-02T01:38:09.883Z,0
2017-04-02T01:38:50.481Z,0
2017-04-02T01:39:31.085Z,0
2017-04-02T01:40:11.673Z,0
2017-04-02T01:40:52.266Z,0
2017-04-02T01:41:32.856Z,0
2017-04-02T01:42:13.459Z,0
2017-04-02T01:42:54.058Z,0
2017-04-02T01:43:34.648Z,0
2017-04-02T01:44:15.245Z,0
2017-04-02T01:44:55.820Z,0
2017-04-02T01:45:36.416Z,0
2017-04-02T01:46:17.011Z,0
2017-04-02T01:46:57.593Z,0
2017-04-02T01:47:38.194Z,0
2017-04-02T01:48:18.798Z,0
2017-04-02T01:48:59.419Z,0
2017-04-02T01:49:40.050Z,0
2017-04-02T01:50:20.639Z,0
2017-04-02T01:51:01.228Z,0
2017-04-02T01:51:41.820Z,0
2017-04-02T01:52:22.417Z,0
2017-04-02T01:53:03.013Z,0
2017-04-02T01:53:43.603Z,0
2017-04-02T01:54:24.191Z,0
2017-04-02T01:55:04.779Z,0
2017-04-02T01:55:45.363Z,0
2017-04-02T01:56:26.004Z,0
2017-04-02T01:57:06.576Z,0
2017-04-02T01:57:47.190Z,0
2017-04-02T01:58:27.789Z,0
2017-04-02T01:59:08.380Z,0
2017-04-02T01:59:48.961Z,0
2017-04-02T02:00:29.537Z,0
2017-04-02T02:01:10.099Z,0
2017-04-02T02:01:50.672Z,0
2017-04-02T02:02:31.246Z,0
2017-04-02T02:03:11.854Z,0
2017-04-02T02:03:52.461Z,0
2017-04-02T02:04:33.066Z,0
2017-04-02T02:05:13.704Z,0
2017-04-02T02:05:54.288Z,0
2017-04-02T02:06:34.859Z,0
2017-04-02T02:07:15.458Z,0
2017-04-02T02:07:56.022Z,0
2017-04-02T02:08:36.600Z,0
2017-04-02T02:09:17.187Z,0
2017-04-02T02:09:57.800Z,0
2017-04-02T02:10:38.376Z,0
2017-04-02T02:11:18.952Z,0
2017-04-02T02:11:59.530Z,0
2017-04-02T02:12:40.100Z,0
2017-04-02T02:13:20.672Z,0
2017-04-02T02:14:01.278Z,0
2017-04-02T02:14:41.880Z,0
2017-04-02T02:15:22.479Z,0
2017-04-02T02:16:03.033Z,0
2017-04-02T02:16:43.674Z,0
2017-04-02T02:17:24.252Z,0
2017-04-02T02:18:04.868Z,0
2017-04-02T02:18:45.427Z,0
2017-04-02T02:19:25.997Z,0
2017-04-02T02:20:06.597Z,0
2017-04-02T02:20:47.223Z,0
2017-04-02T02:21:27.784Z,0
2017-04-02T02:22:08.440Z,0
2017-04-02T02:22:49.987Z,0
2017-04-02T02:23:30.558Z,0
2017-04-02T02:24:11.159Z,0
2017-04-02T02:24:51.734Z,0
2017-04-02T02:25:32.341Z,0
2017-04-02T02:26:12.919Z,0
2017-04-02T02:26:53.510Z,0
2017-04-02T02:27:34.079Z,0
2017-04-02T02:28:14.668Z,0
2017-04-02T02:28:55.269Z,0
2017-04-02T02:29:35.861Z,0
2017-04-02T02:30:16.463Z,0
2017-04-02T02:30:57.054Z,0
2017-04-02T02:31:37.641Z,0
2017-04-02T02:32:18.208Z,0
2017-04-02T02:32:58.779Z,0
2017-04-02T02:33:39.379Z,0
2017-04-02T02:34:19.970Z,0
2017-04-02T02:35:05.232Z,0
2017-04-02T02:35:45.810Z,0
2017-04-02T02:36:27.378Z,0
2017-04-02T02:37:07.970Z,0
2017-04-02T02:37:48.571Z,0
2017-04-02T02:38:29.160Z,0
2017-04-02T02:39:09.741Z,0
2017-04-02T02:39:50.308Z,0
2017-04-02T02:40:30.880Z,0
2017-04-02T02:41:11.453Z,0
2017-04-02T02:41:52.024Z,0
2017-04-02T02:42:32.614Z,0
2017-04-02T02:43:13.200Z,0
2017-04-02T02:43:53.797Z,0
2017-04-02T02:44:34.371Z,0
2017-04-02T02:45:14.939Z,0
2017-04-02T02:45:55.555Z,0
2017-04-02T02:46:36.145Z,0
2017-04-02T02:47:16.778Z,0
2017-04-02T02:47:57.370Z,0
2017-04-02T02:48:37.941Z,0
2017-04-02T02:49:18.530Z,0
2017-04-02T02:49:59.145Z,0
2017-04-02T02:50:39.691Z,0
2017-04-02T02:51:20.288Z,0
2017-04-02T02:52:00.891Z,0
2017-04-02T02:52:41.483Z,0
2017-04-02T02:53:22.068Z,0
2017-04-02T02:54:02.652Z,0
2017-04-02T02:54:43.354Z,0
2017-04-02T02:55:24.006Z,0
2017-04-02T02:56:04.703Z,0
2017-04-02T02:56:46.345Z,0
2017-04-02T02:57:27.010Z,0
2017-04-02T02:58:07.681Z,0
2017-04-02T02:58:48.334Z,0
2017-04-02T02:59:28.903Z,0
2017-04-02T03:00:09.471Z,0
2017-04-02T03:00:51.062Z,0
2017-04-02T03:01:31.670Z,0
2017-04-02T03:02:12.266Z,0
2017-04-02T03:02:52.844Z,0
2017-04-02T03:03:33.494Z,0
2017-04-02T03:04:14.232Z,0
2017-04-02T03:04:54.835Z,0
2017-04-02T03:05:35.409Z,0
2017-04-02T03:06:15.984Z,0
2017-04-02T03:06:56.577Z,0
2017-04-02T03:07:37.145Z,0
2017-04-02T03:08:17.742Z,0
2017-04-02T03:08:58.379Z,0
2017-04-02T03:09:39.007Z,0
2017-04-02T03:10:19.600Z,0
2017-04-02T03:11:00.189Z,0
2017-04-02T03:11:40.766Z,0
2017-04-02T03:12:21.334Z,0
2017-04-02T03:13:02.910Z,0
2017-04-02T03:13:43.522Z,0
2017-04-02T03:14:24.139Z,0
2017-04-02T03:15:04.735Z,0
2017-04-02T03:15:45.363Z,0
2017-04-02T03:16:27.725Z,0
2017-04-02T03:17:08.319Z,0
2017-04-02T03:17:48.918Z,0
2017-04-02T03:18:29.504Z,0
2017-04-02T03:19:10.070Z,0
2017-04-02T03:19:50.659Z,0
2017-04-02T03:20:31.247Z,0
2017-04-02T03:21:11.958Z,0
2017-04-02T03:21:52.545Z,0
2017-04-02T03:22:33.181Z,0
2017-04-02T03:23:13.796Z,0
2017-04-02T03:23:54.452Z,0
2017-04-02T03:24:35.120Z,0
2017-04-02T03:25:15.724Z,0
2017-04-02T03:25:56.301Z,0
2017-04-02T03:26:36.865Z,0
2017-04-02T03:27:17.460Z,0
2017-04-02T03:27:58.050Z,0
2017-04-02T03:28:38.614Z,0
2017-04-02T03:29:19.185Z,0
2017-04-02T03:29:59.759Z,0
2017-04-02T03:30:40.346Z,0
2017-04-02T03:31:20.920Z,0
2017-04-02T03:32:01.502Z,0
2017-04-02T03:32:43.044Z,0
2017-04-02T03:33:23.657Z,0
2017-04-02T03:34:04.248Z,0
2017-04-02T03:34:45.830Z,0
2017-04-02T03:35:26.409Z,0
2017-04-02T03:36:06.971Z,0
2017-04-02T03:36:47.610Z,0
2017-04-02T03:37:28.204Z,0
2017-04-02T03:38:08.826Z,0
2017-04-02T03:38:49.419Z,0
2017-04-02T03:39:30.012Z,0
2017-04-02T03:40:10.618Z,0
2017-04-02T03:40:51.181Z,0
2017-04-02T03:41:31.764Z,0
2017-04-02T03:42:12.321Z,0
2017-04-02T03:42:52.901Z,0
2017-04-02T03:43:33.508Z,0
2017-04-02T03:44:14.114Z,0
2017-04-02T03:44:54.727Z,0
2017-04-02T03:45:35.320Z,0
2017-04-02T03:46:15.904Z,0
2017-04-02T03:46:56.507Z,0
2017-04-02T03:47:37.087Z,0
2017-04-02T03:48:17.683Z,0
2017-04-02T03:48:58.302Z,0
2017-04-02T03:49:38.881Z,0
2017-04-02T03:50:19.470Z,0
2017-04-02T03:51:00.041Z,0
2017-04-02T03:51:40.619Z,0
2017-04-02T03:52:21.214Z,0
2017-04-02T03:53:01.793Z,0
2017-04-02T03:53:42.414Z,0
2017-04-02T03:54:22.999Z,0
2017-04-02T03:55:03.581Z,0
2017-04-02T03:55:44.188Z,0
2017-04-02T03:56:24.822Z,0
2017-04-02T03:57:05.393Z,0
2017-04-02T03:57:45.977Z,0
2017-04-02T03:58:26.551Z,0
2017-04-02T03:59:07.124Z,0
2017-04-02T03:59:47.713Z,0
2017-04-02T04:00:28.285Z,0
2017-04-02T04:01:08.881Z,0
2017-04-02T04:01:49.488Z,0
2017-04-02T04:02:30.103Z,0
2017-04-02T04:03:10.688Z,0
2017-04-02T04:03:51.284Z,0
2017-04-02T04:04:31.881Z,0
2017-04-02T04:05:12.453Z,0
2017-04-02T04:05:53.029Z,0
2017-04-02T04:06:33.617Z,0
2017-04-02T04:07:14.209Z,0
2017-04-02T04:07:54.831Z,0
2017-04-02T04:08:35.424Z,0
2017-04-02T04:09:16.019Z,0
2017-04-02T04:09:56.605Z,0
2017-04-02T04:10:37.202Z,0
2017-04-02T04:11:17.852Z,0
2017-04-02T04:11:58.458Z,0
2017-04-02T04:12:39.065Z,0
2017-04-02T04:13:19.690Z,0
2017-04-02T04:14:00.341Z,0
2017-04-02T04:14:41.006Z,0
2017-04-02T04:15:21.664Z,0
2017-04-02T04:16:02.342Z,0
2017-04-02T04:16:42.961Z,0
2017-04-02T04:17:23.614Z,0
2017-04-02T04:18:04.268Z,0
2017-04-02T04:18:44.872Z,0
2017-04-02T04:19:25.477Z,0
2017-04-02T04:20:06.135Z,0
2017-04-02T04:20:46.791Z,0
2017-04-02T04:21:27.443Z,0
2017-04-02T04:22:08.091Z,0
2017-04-02T04:22:48.747Z,0
2017-04-02T04:23:29.415Z,0
2017-04-02T04:24:10.092Z,0
2017-04-02T04:24:50.655Z,0
2017-04-02T04:25:31.274Z,0
2017-04-02T04:26:11.913Z,0
2017-04-02T04:26:52.604Z,0
2017-04-02T04:27:33.171Z,0
2017-04-02T04:28:13.773Z,0
2017-04-02T04:28:54.408Z,0
2017-04-02T04:29:35.073Z,0
2017-04-02T04:30:15.652Z,0
2017-04-02T04:30:56.282Z,0
2017-04-02T04:31:36.941Z,0
2017-04-02T04:32:17.568Z,0
2017-04-02T04:32:58.231Z,0
2017-04-02T04:33:38.900Z,0
2017-04-02T04:34:19.553Z,0
2017-04-02T04:35:00.235Z,0
2017-04-02T04:35:40.846Z,0
2017-04-02T04:36:21.430Z,0
2017-04-02T04:37:02.038Z,0
2017-04-02T04:37:42.735Z,0
2017-04-02T04:38:23.396Z,0
2017-04-02T04:39:03.982Z,0
2017-04-02T04:39:44.677Z,0
2017-04-02T04:40:25.266Z,0
2017-04-02T04:41:05.894Z,0
2017-04-02T04:41:46.528Z,0
2017-04-02T04:42:27.114Z,0
2017-04-02T04:43:07.781Z,0
2017-04-02T04:43:48.494Z,0
2017-04-02T04:44:29.065Z,0
2017-04-02T04:45:09.707Z,0
2017-04-02T04:45:50.264Z,0
2017-04-02T04:46:30.835Z,0
2017-04-02T04:47:11.458Z,0
2017-04-02T04:47:52.087Z,0
2017-04-02T04:48:34.730Z,0
2017-04-02T04:49:15.392Z,0
2017-04-02T04:49:56.010Z,0
2017-04-02T04:50:36.588Z,0
2017-04-02T04:51:17.215Z,0
2017-04-02T04:51:57.870Z,0
2017-04-02T04:52:38.455Z,0
2017-04-02T04:53:19.040Z,0
2017-04-02T04:53:59.715Z,0
2017-04-02T04:54:40.367Z,0
2017-04-02T04:55:21.052Z,0
2017-04-02T04:56:01.620Z,0
2017-04-02T04:56:42.261Z,0
2017-04-02T04:57:22.859Z,0
2017-04-02T04:58:03.461Z,0
2017-04-02T04:58:44.041Z,0
2017-04-02T04:59:24.642Z,0
2017-04-02T05:00:05.279Z,0
2017-04-02T05:00:45.867Z,0
2017-04-02T05:01:26.428Z,0
2017-04-02T05:02:06.998Z,0
2017-04-02T05:02:47.585Z,0
2017-04-02T05:03:28.174Z,0
2017-04-02T05:04:08.739Z,0
2017-04-02T05:04:50.360Z,0
2017-04-02T05:05:30.951Z,0
2017-04-02T05:06:11.581Z,0
2017-04-02T05:06:52.218Z,0
2017-04-02T05:07:32.805Z,0
2017-04-02T05:08:13.434Z,0
2017-04-02T05:08:54.091Z,0
2017-04-02T05:09:34.737Z,0
2017-04-02T05:10:15.391Z,0
2017-04-02T05:10:56.042Z,0
2017-04-02T05:11:36.691Z,0
2017-04-02T05:12:17.336Z,0
2017-04-02T05:12:57.998Z,0
2017-04-02T05:13:38.652Z,0
2017-04-02T05:14:19.331Z,0
2017-04-02T05:14:59.897Z,0
2017-04-02T05:15:41.544Z,0
2017-04-02T05:16:22.190Z,0
2017-04-02T05:17:02.769Z,0
2017-04-02T05:17:43.331Z,0
2017-04-02T05:18:23.943Z,5
2017-04-02T05:19:04.523Z,5
2017-04-02T05:19:45.146Z,5
2017-04-02T05:20:25.725Z,5
2017-04-02T05:21:06.298Z,5
2017-04-02T05:21:46.912Z,5
2017-04-02T05:22:27.538Z,5
2017-04-02T05:23:08.241Z,5
2017-04-02T05:23:48.826Z,5
2017-04-02T05:24:29.509Z,5
2017-04-02T05:25:10.158Z,5
2017-04-02T05:25:50.815Z,5
2017-04-02T05:26:31.471Z,5
2017-04-02T05:27:12.109Z,5
2017-04-02T05:27:52.777Z,5
2017-04-02T05:28:33.426Z,5
2017-04-02T05:29:14.107Z,5
2017-04-02T05:29:54.694Z,5
2017-04-02T05:30:35.392Z,5
2017-04-02T05:31:16.037Z,5
2017-04-02T05:31:56.736Z,5
2017-04-02T05:32:37.316Z,5
2017-04-02T05:33:18.023Z,10
2017-04-02T05:33:58.649Z,10
2017-04-02T05:34:39.238Z,10
2017-04-02T05:35:19.836Z,10
2017-04-02T05:36:00.515Z,10
2017-04-02T05:36:41.093Z,10
2017-04-02T05:37:21.722Z,10
2017-04-02T05:38:02.376Z,10
2017-04-02T05:38:42.976Z,10
2017-04-02T05:39:23.675Z,10
2017-04-02T05:40:04.334Z,10
2017-04-02T05:40:44.969Z,10
2017-04-02T05:41:25.662Z,10
2017-04-02T05:42:07.311Z,10
2017-04-02T05:42:47.962Z,10
2017-04-02T05:43:28.642Z,15
2017-04-02T05:44:09.297Z,15
2017-04-02T05:44:49.953Z,15
2017-04-02T05:45:30.602Z,15
2017-04-02T05:46:11.260Z,15
2017-04-02T05:46:51.913Z,15
2017-04-02T05:47:32.560Z,15
2017-04-02T05:48:13.214Z,15
2017-04-02T05:48:53.790Z,20
2017-04-02T05:49:34.390Z,20
2017-04-02T05:50:14.976Z,20
2017-04-02T05:50:55.588Z,20
2017-04-02T05:51:36.172Z,20
2017-04-02T05:52:16.777Z,25
2017-04-02T05:52:57.350Z,25
2017-04-02T05:53:38.042Z,25
2017-04-02T05:54:18.655Z,30
2017-04-02T05:54:59.309Z,30
2017-04-02T05:55:39.962Z,30
2017-04-02T05:56:20.607Z,35
2017-04-02T05:57:02.328Z,35
2017-04-02T05:57:42.940Z,35
2017-04-02T05:58:23.599Z,40
2017-04-02T05:59:04.242Z,40
2017-04-02T05:59:44.812Z,45
2017-04-02T06:00:25.436Z,45
2017-04-02T06:01:06.043Z,45
2017-04-02T06:01:46.661Z,50
2017-04-02T06:02:27.233Z,50
2017-04-02T06:03:07.861Z,50
2017-04-02T06:03:48.511Z,55
2017-04-02T06:04:29.092Z,55
2017-04-02T06:05:09.717Z,55
2017-04-02T06:05:50.356Z,60
2017-04-02T06:06:31.020Z,60
2017-04-02T06:07:11.676Z,60
2017-04-02T06:07:52.332Z,60
2017-04-02T06:08:34.028Z,65
2017-04-02T06:09:14.745Z,65
2017-04-02T06:09:55.415Z,65
2017-04-02T06:10:36.069Z,65
2017-04-02T06:11:16.717Z,70
2017-04-02T06:11:57.370Z,70
2017-04-02T06:12:38.008Z,70
2017-04-02T06:13:18.680Z,70
2017-04-02T06:13:59.327Z,70
2017-04-02T06:14:40.003Z,75
2017-04-02T06:15:20.659Z,75
2017-04-02T06:16:01.309Z,75
2017-04-02T06:16:41.954Z,80
2017-04-02T06:17:22.593Z,80
2017-04-02T06:18:03.233Z,80
2017-04-02T06:18:43.895Z,80
2017-04-02T06:19:24.548Z,85
2017-04-02T06:20:05.235Z,85
2017-04-02T06:20:45.858Z,85
2017-04-02T06:21:26.539Z,85
2017-04-02T06:22:07.207Z,90
2017-04-02T06:22:47.810Z,90
2017-04-02T06:23:28.462Z,90
2017-04-02T06:24:09.121Z,90
2017-04-02T06:24:49.811Z,95
2017-04-02T06:25:30.374Z,95
2017-04-02T06:26:10.981Z,95
2017-04-02T06:26:51.635Z,95
2017-04-02T06:27:32.319Z,100
2017-04-02T06:28:12.919Z,100
2017-04-02T06:28:53.582Z,100
2017-04-02T06:29:34.238Z,100
2017-04-02T06:30:14.904Z,100
2017-04-02T06:30:55.541Z,105
2017-04-02T06:31:36.189Z,105
2017-04-02T06:32:16.864Z,105
2017-04-02T06:32:57.505Z,105
2017-04-02T06:33:38.165Z,105
2017-04-02T06:34:18.812Z,105
2017-04-02T06:34:59.466Z,105
2017-04-02T06:35:41.145Z,105
2017-04-02T06:36:21.798Z,105
2017-04-02T06:37:02.440Z,110
2017-04-02T06:37:43.094Z,110
2017-04-02T06:38:23.768Z,110
2017-04-02T06:39:04.392Z,115
2017-04-02T06:39:45.060Z,120
2017-04-02T06:40:26.753Z,125
2017-04-02T06:41:07.391Z,125
2017-04-02T06:41:48.047Z,130
2017-04-02T06:42:28.692Z,135
2017-04-02T06:43:09.345Z,135
2017-04-02T06:43:50.925Z,135
2017-04-02T06:44:31.525Z,135
2017-04-02T06:45:12.112Z,135
2017-04-02T06:45:52.775Z,135
2017-04-02T06:46:33.487Z,140
2017-04-02T06:47:14.084Z,140
2017-04-02T06:47:54.751Z,145
2017-04-02T06:48:36.412Z,150
2017-04-02T06:49:17.976Z,155
2017-04-02T06:49:58.660Z,155
2017-04-02T06:50:39.294Z,150
2017-04-02T06:51:19.954Z,150
2017-04-02T06:52:00.580Z,145
2017-04-02T06:52:41.263Z,145
2017-04-02T06:53:21.840Z,150
2017-04-02T06:54:02.453Z,155
2017-04-02T06:54:43.102Z,155
2017-04-02T06:55:23.773Z,155
2017-04-02T06:56:04.427Z,160
2017-04-02T06:56:45.064Z,160
2017-04-02T06:57:25.726Z,165
2017-04-02T06:58:06.374Z,165
2017-04-02T06:58:47.026Z,165
2017-04-02T06:59:27.684Z,165
2017-04-02T07:00:08.333Z,165
2017-04-02T07:00:48.992Z,165
2017-04-02T07:01:29.644Z,165
2017-04-02T07:02:10.326Z,165
2017-04-02T07:02:50.939Z,165
2017-04-02T07:03:31.601Z,165
2017-04-02T07:04:12.173Z,165
2017-04-02T07:04:52.801Z,160
2017-04-02T07:05:33.389Z,160
2017-04-02T07:06:13.954Z,160
2017-04-02T07:06:54.549Z,165
2017-04-02T07:07:35.198Z,165
2017-04-02T07:08:15.795Z,165
2017-04-02T07:08:56.382Z,165
2017-04-02T07:09:37.066Z,170
2017-04-02T07:10:17.707Z,175
2017-04-02T07:10:58.310Z,175
2017-04-02T07:11:38.876Z,175
2017-04-02T07:12:19.460Z,175
2017-04-02T07:13:00.136Z,175
2017-04-02T07:13:40.711Z,175
2017-04-02T07:14:21.304Z,175
2017-04-02T07:15:01.980Z,175
2017-04-02T07:15:42.632Z,175
2017-04-02T07:16:23.278Z,175
2017-04-02T07:17:03.933Z,175
2017-04-02T07:17:44.604Z,175
2017-04-02T07:18:26.179Z,175
2017-04-02T07:19:06.821Z,175
2017-04-02T07:19:48.430Z,175
2017-04-02T07:20:29.025Z,175
2017-04-02T07:21:09.723Z,175
2017-04-02T07:21:50.362Z,175
2017-04-02T07:22:30.939Z,175
2017-04-02T07:23:11.539Z,175
2017-04-02T07:23:52.199Z,175
2017-04-02T07:24:32.855Z,175
2017-04-02T07:25:13.525Z,170
2017-04-02T07:25:54.176Z,165
2017-04-02T07:26:34.767Z,165
2017-04-02T07:27:15.414Z,170
2017-04-02T07:27:56.066Z,175
2017-04-02T07:28:36.726Z,175
2017-04-02T07:29:17.367Z,180
2017-04-02T07:29:58.024Z,175
2017-04-02T07:30:38.679Z,170
2017-04-02T07:31:19.332Z,170
2017-04-02T07:31:59.988Z,165
2017-04-02T07:32:40.633Z,165
2017-04-02T07:33:21.200Z,170
2017-04-02T07:34:01.844Z,175
2017-04-02T07:34:42.461Z,180
2017-04-02T07:35:23.114Z,175
2017-04-02T07:36:03.766Z,175
2017-04-02T07:36:44.422Z,175
2017-04-02T07:37:25.073Z,180
2017-04-02T07:38:05.726Z,185
2017-04-02T07:38:46.382Z,185
2017-04-02T07:39:27.026Z,185
2017-04-02T07:40:07.672Z,185
2017-04-02T07:40:48.337Z,185
2017-04-02T07:41:28.998Z,180
2017-04-02T07:42:09.637Z,180
2017-04-02T07:42:50.290Z,180
2017-04-02T07:43:30.945Z,185
2017-04-02T07:44:11.516Z,190
2017-04-02T07:44:52.148Z,195
2017-04-02T07:45:32.802Z,200
2017-04-02T07:46:13.457Z,200
2017-04-02T07:46:54.100Z,200
2017-04-02T07:47:34.754Z,200
2017-04-02T07:48:15.403Z,200
2017-04-02T07:48:56.058Z,195
2017-04-02T07:49:36.715Z,195
2017-04-02T07:50:17.368Z,195
2017-04-02T07:50:58.020Z,195
2017-04-02T07:51:38.566Z,195
2017-04-02T07:52:19.223Z,195
2017-04-02T07:52:59.872Z,195
2017-04-02T07:53:40.555Z,195
2017-04-02T07:54:21.126Z,195
2017-04-02T07:55:01.681Z,200
2017-04-02T07:55:42.299Z,195
2017-04-02T07:56:22.937Z,200
2017-04-02T07:57:03.636Z,200
2017-04-02T07:57:44.205Z,200
2017-04-02T07:58:24.815Z,195
2017-04-02T07:59:05.452Z,195
2017-04-02T07:59:46.042Z,195
2017-04-02T08:00:26.621Z,195
2017-04-02T08:01:07.307Z,200
2017-04-02T08:01:47.962Z,200
2017-04-02T08:02:28.552Z,200
2017-04-02T08:03:09.126Z,200
2017-04-02T08:03:49.737Z,200
2017-04-02T08:04:30.368Z,200
2017-04-02T08:05:10.960Z,200
2017-04-02T08:05:51.533Z,205
2017-04-02T08:06:32.124Z,205
2017-04-02T08:07:12.763Z,205
2017-04-02T08:07:53.468Z,210
2017-04-02T08:08:34.052Z,210
2017-04-02T08:09:14.623Z,215
2017-04-02T08:09:55.281Z,215
2017-04-02T08:10:35.870Z,220
2017-04-02T08:11:16.524Z,220
2017-04-02T08:11:57.183Z,220
2017-04-02T08:12:37.832Z,230
2017-04-02T08:13:18.486Z,230
2017-04-02T08:13:59.138Z,240
2017-04-02T08:14:39.713Z,240
2017-04-02T08:15:20.422Z,245
2017-04-02T08:16:01.054Z,245
2017-04-02T08:16:41.746Z,240
2017-04-02T08:17:22.334Z,240
2017-04-02T08:18:02.932Z,245
2017-04-02T08:18:43.570Z,245
2017-04-02T08:19:24.262Z,240
2017-04-02T08:20:04.838Z,240
2017-04-02T08:20:45.438Z,240
2017-04-02T08:21:26.010Z,235
2017-04-02T08:22:06.719Z,230
2017-04-02T08:22:47.320Z,230
2017-04-02T08:23:27.869Z,225
2017-04-02T08:24:08.501Z,225
2017-04-02T08:24:49.125Z,230
2017-04-02T08:25:29.726Z,230
2017-04-02T08:26:10.306Z,235
2017-04-02T08:26:51.027Z,240
2017-04-02T08:27:31.641Z,250
2017-04-02T08:28:12.236Z,260
2017-04-02T08:28:52.809Z,265
2017-04-02T08:29:33.412Z,270
2017-04-02T08:30:14.044Z,285
2017-04-02T08:30:54.700Z,275
2017-04-02T08:31:35.363Z,275
2017-04-02T08:32:17.076Z,280
2017-04-02T08:32:57.689Z,285
2017-04-02T08:33:38.349Z,290
2017-04-02T08:34:18.989Z,300
2017-04-02T08:34:59.653Z,305
2017-04-02T08:35:40.235Z,295
2017-04-02T08:36:20.819Z,280
2017-04-02T08:37:01.413Z,255
2017-04-02T08:37:42.079Z,250
2017-04-02T08:38:22.754Z,255
2017-04-02T08:39:03.323Z,245
2017-04-02T08:39:43.913Z,235
2017-04-02T08:40:24.578Z,235
2017-04-02T08:41:05.247Z,230
2017-04-02T08:41:45.891Z,230
2017-04-02T08:42:26.563Z,215
2017-04-02T08:43:07.192Z,210
2017-04-02T08:43:47.826Z,210
2017-04-02T08:44:28.494Z,210
2017-04-02T08:45:09.148Z,210
2017-04-02T08:45:49.789Z,205
2017-04-02T08:46:30.453Z,205
2017-04-02T08:47:11.107Z,200
2017-04-02T08:47:51.758Z,195
2017-04-02T08:48:32.441Z,195
2017-04-02T08:49:13.052Z,190
2017-04-02T08:49:53.717Z,190
2017-04-02T08:50:34.364Z,195
2017-04-02T08:51:15.002Z,200
2017-04-02T08:51:55.663Z,205
2017-04-02T08:52:36.308Z,215
2017-04-02T08:53:16.962Z,220
2017-04-02T08:53:58.658Z,230
2017-04-02T08:54:40.314Z,230
2017-04-02T08:55:20.975Z,235
2017-04-02T08:56:01.643Z,260
2017-04-02T08:56:42.273Z,265
2017-04-02T08:57:22.927Z,270
2017-04-02T08:58:03.585Z,275
2017-04-02T08:58:44.246Z,285
2017-04-02T08:59:24.889Z,280
2017-04-02T09:00:06.613Z,270
2017-04-02T09:00:47.234Z,260
2017-04-02T09:01:27.880Z,250
2017-04-02T09:02:08.522Z,235
2017-04-02T09:02:49.282Z,235
2017-04-02T09:03:29.957Z,220
2017-04-02T09:04:10.647Z,215
2017-04-02T09:04:51.237Z,215
2017-04-02T09:05:31.826Z,220
2017-04-02T09:06:12.485Z,220
2017-04-02T09:06:53.173Z,210
2017-04-02T09:07:33.727Z,205
2017-04-02T09:08:14.355Z,210
2017-04-02T09:08:54.983Z,220
2017-04-02T09:09:35.589Z,210
2017-04-02T09:10:16.157Z,210
2017-04-02T09:10:56.873Z,210
2017-04-02T09:11:37.489Z,210
2017-04-02T09:12:18.195Z,215
2017-04-02T09:12:58.775Z,215
2017-04-02T09:13:39.479Z,215
2017-04-02T09:14:20.109Z,215
2017-04-02T09:15:00.767Z,240
2017-04-02T09:15:41.454Z,240
2017-04-02T09:16:22.069Z,245
2017-04-02T09:17:02.769Z,250
2017-04-02T09:17:43.372Z,245
2017-04-02T09:18:24.042Z,245
2017-04-02T09:19:05.707Z,240
2017-04-02T09:19:46.401Z,235
2017-04-02T09:20:26.960Z,215
2017-04-02T09:21:07.542Z,215
2017-04-02T09:21:48.225Z,205
2017-04-02T09:22:28.877Z,205
2017-04-02T09:23:09.569Z,205
2017-04-02T09:23:50.141Z,225
2017-04-02T09:24:30.788Z,220
2017-04-02T09:25:11.376Z,220
2017-04-02T09:25:52.083Z,225
2017-04-02T09:26:32.633Z,235
2017-04-02T09:27:13.229Z,240
2017-04-02T09:27:53.866Z,235
2017-04-02T09:28:34.480Z,230
2017-04-02T09:29:15.033Z,255
2017-04-02T09:29:55.628Z,230
2017-04-02T09:30:36.301Z,230
2017-04-02T09:31:16.967Z,260
2017-04-02T09:31:57.622Z,255
2017-04-02T09:32:38.271Z,250
2017-04-02T09:33:18.926Z,255
2017-04-02T09:33:59.565Z,255
2017-04-02T09:34:40.208Z,245
2017-04-02T09:35:20.855Z,245
2017-04-02T09:36:01.556Z,240
2017-04-02T09:36:42.137Z,240
2017-04-02T09:37:22.840Z,230
2017-04-02T09:38:03.494Z,230
2017-04-02T09:38:44.175Z,225
2017-04-02T09:39:24.735Z,225
2017-04-02T09:40:05.372Z,250
2017-04-02T09:40:46.296Z,245
2017-04-02T09:41:27.979Z,250
2017-04-02T09:42:08.659Z,260
2017-04-02T09:42:49.273Z,260
2017-04-02T09:43:29.817Z,260
2017-04-02T09:44:10.501Z,240
2017-04-02T09:44:51.152Z,255